Blanco, Texas
Current Conditions -  °F | °C
As of 6:15 AM on Friday 19 Dec 2014 (Local Time) from KDZB Reporting Station
Drizzle Drizzle  
Wind Chill: 43°   Ceiling: 800
Heat Index: 47°   Visibility: 4mi
Dew Point: 47°   Wind: 8mph
Humidity: 100%   Direction: 20°NNE
Pressure: 30.11"   Gusts: NA
Location:  30.1°N, 98.42°W
Report Text: KDZB 191215Z AUTO 02007KT 4SM -DZ OVC008 09/09 A3011 RMK AO2 T00850085
Loading
Personal Weather Stations






























Interactive Weather Map New forecast layout! Learn more

10-Day Weather Forecast

Advertisements
Track Severe Weather on mobile